sensor_id;sensor_type;location;lat;lon;timestamp;P1;durP1;ratioP1;P2;durP2;ratioP2
23472;SDS011;11909;52.516;13.564;2023-12-29T00:02:09;2.78;;;1.92;;
23472;SDS011;11909;52.516;13.564;2023-12-29T00:04:37;3.60;;;1.88;;
23472;SDS011;11909;52.516;13.564;2023-12-29T00:07:04;6.20;;;2.15;;
23472;SDS011;11909;52.516;13.564;2023-12-29T00:09:32;4.20;;;2.13;;
23472;SDS011;11909;52.516;13.564;2023-12-29T00:12:08;4.32;;;1.92;;
23472;SDS011;11909;52.516;13.564;2023-12-29T00:14:36;5.90;;;2.08;;
23472;SDS011;11909;52.516;13.564;2023-12-29T00:17:04;3.10;;;2.00;;
23472;SDS011;11909;52.516;13.564;2023-12-29T00:19:32;3.78;;;2.15;;
23472;SDS011;11909;52.516;13.564;2023-12-29T00:22:00;4.38;;;2.08;;
23472;SDS011;11909;52.516;13.564;2023-12-29T00:24:30;3.35;;;1.95;;
23472;SDS011;11909;52.516;13.564;2023-12-29T00:26:59;4.07;;;1.88;;
23472;SDS011;11909;52.516;13.564;2023-12-29T00:29:28;3.22;;;1.80;;
23472;SDS011;11909;52.516;13.564;2023-12-29T00:32:00;3.22;;;1.70;;
23472;SDS011;11909;52.516;13.564;2023-12-29T00:34:30;4.55;;;2.17;;
23472;SDS011;11909;52.516;13.564;2023-12-29T00:36:58;4.10;;;2.33;;
23472;SDS011;11909;52.516;13.564;2023-12-29T00:39:26;2.70;;;2.00;;
23472;SDS011;11909;52.516;13.564;2023-12-29T00:41:57;5.82;;;1.70;;
23472;SDS011;11909;52.516;13.564;2023-12-29T00:44:25;2.13;;;1.88;;
23472;SDS011;11909;52.516;13.564;2023-12-29T00:46:55;2.20;;;1.95;;
23472;SDS011;11909;52.516;13.564;2023-12-29T00:49:23;3.83;;;1.60;;
23472;SDS011;11909;52.516;13.564;2023-12-29T00:51:51;3.45;;;1.98;;
23472;SDS011;11909;52.516;13.564;2023-12-29T00:54:19;2.38;;;1.92;;
23472;SDS011;11909;52.516;13.564;2023-12-29T00:56:50;2.03;;;1.73;;
23472;SDS011;11909;52.516;13.564;2023-12-29T00:59:19;4.00;;;2.13;;
23472;SDS011;11909;52.516;13.564;2023-12-29T01:01:47;3.70;;;1.92;;
23472;SDS011;11909;52.516;13.564;2023-12-29T01:04:17;2.70;;;1.88;;
23472;SDS011;11909;52.516;13.564;2023-12-29T01:06:45;3.93;;;2.10;;
23472;SDS011;11909;52.516;13.564;2023-12-29T01:09:13;6.40;;;2.08;;
23472;SDS011;11909;52.516;13.564;2023-12-29T01:11:41;3.65;;;1.73;;
23472;SDS011;11909;52.516;13.564;2023-12-29T01:14:09;3.83;;;2.10;;
23472;SDS011;11909;52.516;13.564;2023-12-29T01:16:37;3.58;;;1.70;;
23472;SDS011;11909;52.516;13.564;2023-12-29T01:19:05;3.78;;;1.95;;
23472;SDS011;11909;52.516;13.564;2023-12-29T01:21:34;2.72;;;1.63;;
23472;SDS011;11909;52.516;13.564;2023-12-29T01:24:05;4.90;;;1.80;;
23472;SDS011;11909;52.516;13.564;2023-12-29T01:26:36;3.85;;;1.83;;
23472;SDS011;11909;52.516;13.564;2023-12-29T01:29:04;6.07;;;2.00;;
23472;SDS011;11909;52.516;13.564;2023-12-29T01:31:32;5.68;;;1.95;;
23472;SDS011;11909;52.516;13.564;2023-12-29T01:34:00;3.63;;;1.77;;
23472;SDS011;11909;52.516;13.564;2023-12-29T01:36:28;2.80;;;1.65;;
23472;SDS011;11909;52.516;13.564;2023-12-29T01:38:58;2.53;;;1.90;;
23472;SDS011;11909;52.516;13.564;2023-12-29T01:41:26;4.50;;;2.03;;
23472;SDS011;11909;52.516;13.564;2023-12-29T01:46:52;4.38;;;1.70;;
23472;SDS011;11909;52.516;13.564;2023-12-29T01:49:22;2.20;;;1.70;;
23472;SDS011;11909;52.516;13.564;2023-12-29T01:51:51;3.55;;;1.67;;
23472;SDS011;11909;52.516;13.564;2023-12-29T01:54:23;2.10;;;1.60;;
23472;SDS011;11909;52.516;13.564;2023-12-29T01:56:54;3.40;;;1.83;;
23472;SDS011;11909;52.516;13.564;2023-12-29T01:59:24;6.25;;;1.83;;
23472;SDS011;11909;52.516;13.564;2023-12-29T02:01:54;4.43;;;1.77;;
23472;SDS011;11909;52.516;13.564;2023-12-29T02:04:23;5.97;;;1.92;;
23472;SDS011;11909;52.516;13.564;2023-12-29T02:06:52;4.07;;;1.80;;
23472;SDS011;11909;52.516;13.564;2023-12-29T02:09:21;4.45;;;1.75;;
23472;SDS011;11909;52.516;13.564;2023-12-29T02:11:50;4.45;;;1.60;;
23472;SDS011;11909;52.516;13.564;2023-12-29T02:14:18;3.58;;;1.83;;
23472;SDS011;11909;52.516;13.564;2023-12-29T02:16:50;4.97;;;2.03;;
23472;SDS011;11909;52.516;13.564;2023-12-29T02:19:36;3.97;;;1.65;;
23472;SDS011;11909;52.516;13.564;2023-12-29T02:22:07;4.55;;;1.85;;
23472;SDS011;11909;52.516;13.564;2023-12-29T02:24:37;2.85;;;1.60;;
23472;SDS011;11909;52.516;13.564;2023-12-29T02:30:04;2.72;;;1.80;;
23472;SDS011;11909;52.516;13.564;2023-12-29T02:32:38;2.63;;;1.65;;
23472;SDS011;11909;52.516;13.564;2023-12-29T02:35:08;7.47;;;1.90;;
23472;SDS011;11909;52.516;13.564;2023-12-29T02:37:38;3.75;;;1.95;;
23472;SDS011;11909;52.516;13.564;2023-12-29T02:40:07;2.25;;;1.60;;
23472;SDS011;11909;52.516;13.564;2023-12-29T02:42:36;2.35;;;1.77;;
23472;SDS011;11909;52.516;13.564;2023-12-29T02:45:04;3.65;;;2.00;;
23472;SDS011;11909;52.516;13.564;2023-12-29T02:47:32;2.30;;;1.73;;
23472;SDS011;11909;52.516;13.564;2023-12-29T02:50:00;3.22;;;1.70;;
23472;SDS011;11909;52.516;13.564;2023-12-29T02:52:28;2.90;;;1.70;;
23472;SDS011;11909;52.516;13.564;2023-12-29T02:54:56;2.70;;;1.80;;
23472;SDS011;11909;52.516;13.564;2023-12-29T02:57:24;2.45;;;1.70;;
23472;SDS011;11909;52.516;13.564;2023-12-29T02:59:54;5.30;;;1.67;;
23472;SDS011;11909;52.516;13.564;2023-12-29T03:02:21;2.30;;;1.65;;
23472;SDS011;11909;52.516;13.564;2023-12-29T03:04:49;2.30;;;1.70;;
23472;SDS011;11909;52.516;13.564;2023-12-29T03:07:17;4.68;;;1.60;;
23472;SDS011;11909;52.516;13.564;2023-12-29T03:09:45;4.63;;;2.00;;
23472;SDS011;11909;52.516;13.564;2023-12-29T03:12:14;2.65;;;1.80;;
23472;SDS011;11909;52.516;13.564;2023-12-29T03:14:41;3.20;;;1.90;;
23472;SDS011;11909;52.516;13.564;2023-12-29T03:17:11;5.63;;;1.73;;
23472;SDS011;11909;52.516;13.564;2023-12-29T03:19:39;2.25;;;1.80;;
23472;SDS011;11909;52.516;13.564;2023-12-29T03:22:07;3.38;;;1.52;;
23472;SDS011;11909;52.516;13.564;2023-12-29T03:24:36;5.00;;;1.90;;
23472;SDS011;11909;52.516;13.564;2023-12-29T03:27:07;2.38;;;1.60;;
23472;SDS011;11909;52.516;13.564;2023-12-29T03:29:34;2.33;;;1.60;;
23472;SDS011;11909;52.516;13.564;2023-12-29T03:32:03;1.52;;;1.42;;
23472;SDS011;11909;52.516;13.564;2023-12-29T03:34:34;2.47;;;1.63;;
23472;SDS011;11909;52.516;13.564;2023-12-29T03:37:02;3.35;;;1.60;;
23472;SDS011;11909;52.516;13.564;2023-12-29T03:39:31;1.42;;;1.33;;
23472;SDS011;11909;52.516;13.564;2023-12-29T03:42:01;1.80;;;1.50;;
23472;SDS011;11909;52.516;13.564;2023-12-29T03:44:30;2.78;;;1.73;;
23472;SDS011;11909;52.516;13.564;2023-12-29T03:46:58;2.88;;;1.52;;
23472;SDS011;11909;52.516;13.564;2023-12-29T03:49:26;2.15;;;1.42;;
23472;SDS011;11909;52.516;13.564;2023-12-29T03:52:16;1.67;;;1.42;;
23472;SDS011;11909;52.516;13.564;2023-12-29T03:54:44;4.20;;;1.80;;
23472;SDS011;11909;52.516;13.564;2023-12-29T03:57:12;1.35;;;1.25;;
23472;SDS011;11909;52.516;13.564;2023-12-29T03:59:40;2.55;;;1.58;;
23472;SDS011;11909;52.516;13.564;2023-12-29T04:02:08;1.50;;;1.40;;
23472;SDS011;11909;52.516;13.564;2023-12-29T04:04:36;3.63;;;1.63;;
23472;SDS011;11909;52.516;13.564;2023-12-29T04:07:04;1.55;;;1.42;;
23472;SDS011;11909;52.516;13.564;2023-12-29T04:09:34;2.20;;;1.20;;
23472;SDS011;11909;52.516;13.564;2023-12-29T04:12:02;2.00;;;1.20;;
23472;SDS011;11909;52.516;13.564;2023-12-29T04:14:30;2.00;;;1.45;;
23472;SDS011;11909;52.516;13.564;2023-12-29T04:16:58;3.03;;;1.38;;
23472;SDS011;11909;52.516;13.564;2023-12-29T04:19:26;3.10;;;1.30;;
23472;SDS011;11909;52.516;13.564;2023-12-29T04:21:54;2.45;;;1.50;;
23472;SDS011;11909;52.516;13.564;2023-12-29T04:24:22;1.90;;;1.20;;
23472;SDS011;11909;52.516;13.564;2023-12-29T04:26:51;2.15;;;1.40;;
23472;SDS011;11909;52.516;13.564;2023-12-29T04:29:19;4.70;;;1.20;;
23472;SDS011;11909;52.516;13.564;2023-12-29T04:31:47;1.58;;;1.20;;
23472;SDS011;11909;52.516;13.564;2023-12-29T04:34:15;1.50;;;1.13;;
23472;SDS011;11909;52.516;13.564;2023-12-29T04:36:43;2.80;;;1.20;;
23472;SDS011;11909;52.516;13.564;2023-12-29T04:39:11;1.50;;;1.20;;
23472;SDS011;11909;52.516;13.564;2023-12-29T04:41:39;4.88;;;1.80;;
23472;SDS011;11909;52.516;13.564;2023-12-29T04:44:08;1.60;;;1.27;;
23472;SDS011;11909;52.516;13.564;2023-12-29T04:46:36;2.47;;;1.25;;
23472;SDS011;11909;52.516;13.564;2023-12-29T04:49:04;3.03;;;1.40;;
23472;SDS011;11909;52.516;13.564;2023-12-29T04:51:32;2.28;;;1.00;;
23472;SDS011;11909;52.516;13.564;2023-12-29T04:54:01;2.10;;;1.50;;
23472;SDS011;11909;52.516;13.564;2023-12-29T04:56:29;2.80;;;1.15;;
23472;SDS011;11909;52.516;13.564;2023-12-29T04:58:56;2.65;;;1.45;;
23472;SDS011;11909;52.516;13.564;2023-12-29T05:01:27;3.75;;;1.23;;
23472;SDS011;11909;52.516;13.564;2023-12-29T05:03:54;2.45;;;1.10;;
23472;SDS011;11909;52.516;13.564;2023-12-29T05:06:22;2.28;;;1.30;;
23472;SDS011;11909;52.516;13.564;2023-12-29T05:08:50;0.95;;;0.95;;
23472;SDS011;11909;52.516;13.564;2023-12-29T05:11:18;2.80;;;1.25;;
23472;SDS011;11909;52.516;13.564;2023-12-29T05:13:45;1.30;;;1.10;;
23472;SDS011;11909;52.516;13.564;2023-12-29T05:16:13;1.05;;;0.93;;
23472;SDS011;11909;52.516;13.564;2023-12-29T05:18:43;1.30;;;1.00;;
23472;SDS011;11909;52.516;13.564;2023-12-29T05:21:14;2.58;;;0.98;;
23472;SDS011;11909;52.516;13.564;2023-12-29T05:23:43;1.95;;;0.77;;
23472;SDS011;11909;52.516;13.564;2023-12-29T05:26:11;1.42;;;1.05;;
23472;SDS011;11909;52.516;13.564;2023-12-29T05:28:39;2.67;;;1.40;;
23472;SDS011;11909;52.516;13.564;2023-12-29T05:31:07;2.08;;;1.00;;
23472;SDS011;11909;52.516;13.564;2023-12-29T05:33:36;1.58;;;1.20;;
23472;SDS011;11909;52.516;13.564;2023-12-29T05:36:09;2.17;;;1.10;;
23472;SDS011;11909;52.516;13.564;2023-12-29T05:38:38;1.55;;;1.10;;
23472;SDS011;11909;52.516;13.564;2023-12-29T05:41:07;1.48;;;1.08;;
23472;SDS011;11909;52.516;13.564;2023-12-29T05:43:35;1.95;;;1.30;;
23472;SDS011;11909;52.516;13.564;2023-12-29T05:46:06;1.05;;;1.00;;
23472;SDS011;11909;52.516;13.564;2023-12-29T05:48:37;1.30;;;1.10;;
23472;SDS011;11909;52.516;13.564;2023-12-29T05:51:06;2.13;;;1.10;;
23472;SDS011;11909;52.516;13.564;2023-12-29T05:53:37;2.28;;;1.30;;
23472;SDS011;11909;52.516;13.564;2023-12-29T05:56:06;3.22;;;1.13;;
23472;SDS011;11909;52.516;13.564;2023-12-29T05:58:34;2.17;;;1.35;;
23472;SDS011;11909;52.516;13.564;2023-12-29T06:01:03;1.98;;;0.98;;
23472;SDS011;11909;52.516;13.564;2023-12-29T06:03:32;1.58;;;1.20;;
23472;SDS011;11909;52.516;13.564;2023-12-29T06:06:00;6.95;;;1.30;;
23472;SDS011;11909;52.516;13.564;2023-12-29T06:08:29;0.90;;;0.90;;
23472;SDS011;11909;52.516;13.564;2023-12-29T06:10:57;2.03;;;1.20;;
23472;SDS011;11909;52.516;13.564;2023-12-29T06:13:25;5.05;;;1.10;;
23472;SDS011;11909;52.516;13.564;2023-12-29T06:15:53;2.60;;;1.23;;
23472;SDS011;11909;52.516;13.564;2023-12-29T06:18:20;2.47;;;1.15;;
23472;SDS011;11909;52.516;13.564;2023-12-29T06:20:49;1.00;;;0.90;;
23472;SDS011;11909;52.516;13.564;2023-12-29T06:23:17;4.00;;;1.08;;
23472;SDS011;11909;52.516;13.564;2023-12-29T06:25:48;2.53;;;1.20;;
23472;SDS011;11909;52.516;13.564;2023-12-29T06:28:16;2.53;;;1.05;;
23472;SDS011;11909;52.516;13.564;2023-12-29T06:30:44;2.60;;;1.20;;
23472;SDS011;11909;52.516;13.564;2023-12-29T06:33:12;1.80;;;1.30;;
23472;SDS011;11909;52.516;13.564;2023-12-29T06:35:40;1.55;;;0.98;;
23472;SDS011;11909;52.516;13.564;2023-12-29T06:38:08;0.90;;;0.90;;
23472;SDS011;11909;52.516;13.564;2023-12-29T06:40:36;2.25;;;1.20;;
23472;SDS011;11909;52.516;13.564;2023-12-29T06:43:05;2.00;;;1.25;;
23472;SDS011;11909;52.516;13.564;2023-12-29T06:45:33;3.45;;;1.05;;
23472;SDS011;11909;52.516;13.564;2023-12-29T06:48:01;2.22;;;1.50;;
23472;SDS011;11909;52.516;13.564;2023-12-29T06:50:30;2.78;;;1.30;;
23472;SDS011;11909;52.516;13.564;2023-12-29T06:52:58;2.92;;;1.23;;
23472;SDS011;11909;52.516;13.564;2023-12-29T06:55:26;2.50;;;1.20;;
23472;SDS011;11909;52.516;13.564;2023-12-29T06:57:54;2.00;;;1.27;;
23472;SDS011;11909;52.516;13.564;2023-12-29T07:00:23;3.75;;;1.05;;
23472;SDS011;11909;52.516;13.564;2023-12-29T07:02:51;1.98;;;1.30;;
23472;SDS011;11909;52.516;13.564;2023-12-29T07:05:19;3.15;;;1.40;;
23472;SDS011;11909;52.516;13.564;2023-12-29T07:07:47;2.58;;;1.27;;
23472;SDS011;11909;52.516;13.564;2023-12-29T07:10:15;3.40;;;1.27;;
23472;SDS011;11909;52.516;13.564;2023-12-29T07:12:43;3.30;;;1.35;;
23472;SDS011;11909;52.516;13.564;2023-12-29T07:15:12;1.85;;;1.30;;
23472;SDS011;11909;52.516;13.564;2023-12-29T07:17:42;2.25;;;1.60;;
23472;SDS011;11909;52.516;13.564;2023-12-29T07:20:10;1.97;;;1.30;;
23472;SDS011;11909;52.516;13.564;2023-12-29T07:22:39;1.98;;;1.30;;
23472;SDS011;11909;52.516;13.564;2023-12-29T07:25:07;2.75;;;1.20;;
23472;SDS011;11909;52.516;13.564;2023-12-29T07:27:35;3.13;;;1.25;;
23472;SDS011;11909;52.516;13.564;2023-12-29T07:30:03;2.47;;;1.52;;
23472;SDS011;11909;52.516;13.564;2023-12-29T07:32:32;3.58;;;1.38;;
23472;SDS011;11909;52.516;13.564;2023-12-29T07:35:01;2.22;;;1.40;;
23472;SDS011;11909;52.516;13.564;2023-12-29T07:37:29;1.83;;;1.35;;
23472;SDS011;11909;52.516;13.564;2023-12-29T07:39:57;1.90;;;1.35;;
23472;SDS011;11909;52.516;13.564;2023-12-29T07:42:25;2.53;;;1.33;;
23472;SDS011;11909;52.516;13.564;2023-12-29T07:44:53;1.80;;;1.30;;
23472;SDS011;11909;52.516;13.564;2023-12-29T07:47:23;2.20;;;1.77;;
23472;SDS011;11909;52.516;13.564;2023-12-29T07:49:51;3.92;;;1.20;;
23472;SDS011;11909;52.516;13.564;2023-12-29T07:52:20;4.28;;;1.40;;
23472;SDS011;11909;52.516;13.564;2023-12-29T07:54:48;1.80;;;1.25;;
23472;SDS011;11909;52.516;13.564;2023-12-29T07:57:16;3.80;;;1.30;;
23472;SDS011;11909;52.516;13.564;2023-12-29T07:59:44;3.67;;;1.50;;
23472;SDS011;11909;52.516;13.564;2023-12-29T08:02:12;4.22;;;1.42;;
23472;SDS011;11909;52.516;13.564;2023-12-29T08:04:40;2.22;;;1.23;;
23472;SDS011;11909;52.516;13.564;2023-12-29T08:07:07;4.85;;;1.90;;
23472;SDS011;11909;52.516;13.564;2023-12-29T08:09:37;3.60;;;1.40;;
23472;SDS011;11909;52.516;13.564;2023-12-29T08:12:06;5.18;;;1.45;;
23472;SDS011;11909;52.516;13.564;2023-12-29T08:14:34;3.08;;;1.40;;
23472;SDS011;11909;52.516;13.564;2023-12-29T08:17:02;5.03;;;1.60;;
23472;SDS011;11909;52.516;13.564;2023-12-29T08:19:30;3.38;;;1.60;;
23472;SDS011;11909;52.516;13.564;2023-12-29T08:21:58;2.13;;;1.75;;
23472;SDS011;11909;52.516;13.564;2023-12-29T08:24:26;1.65;;;1.30;;
23472;SDS011;11909;52.516;13.564;2023-12-29T08:26:55;2.78;;;1.10;;
23472;SDS011;11909;52.516;13.564;2023-12-29T08:29:23;2.95;;;1.42;;
23472;SDS011;11909;52.516;13.564;2023-12-29T08:31:52;3.28;;;1.40;;
23472;SDS011;11909;52.516;13.564;2023-12-29T08:34:19;1.90;;;1.38;;
23472;SDS011;11909;52.516;13.564;2023-12-29T08:36:50;5.07;;;1.25;;
23472;SDS011;11909;52.516;13.564;2023-12-29T08:39:18;4.95;;;1.42;;
23472;SDS011;11909;52.516;13.564;2023-12-29T08:41:46;3.33;;;1.33;;
23472;SDS011;11909;52.516;13.564;2023-12-29T08:44:17;4.80;;;1.60;;
23472;SDS011;11909;52.516;13.564;2023-12-29T08:46:45;5.57;;;1.77;;
23472;SDS011;11909;52.516;13.564;2023-12-29T08:49:13;3.17;;;1.45;;
23472;SDS011;11909;52.516;13.564;2023-12-29T08:51:40;2.25;;;1.20;;
23472;SDS011;11909;52.516;13.564;2023-12-29T08:54:09;2.53;;;1.40;;
23472;SDS011;11909;52.516;13.564;2023-12-29T08:56:36;2.72;;;1.70;;
23472;SDS011;11909;52.516;13.564;2023-12-29T08:59:04;3.50;;;1.38;;
23472;SDS011;11909;52.516;13.564;2023-12-29T09:01:34;2.58;;;1.48;;
23472;SDS011;11909;52.516;13.564;2023-12-29T09:04:02;3.75;;;1.30;;
23472;SDS011;11909;52.516;13.564;2023-12-29T09:06:30;6.20;;;1.70;;
23472;SDS011;11909;52.516;13.564;2023-12-29T09:08:58;3.63;;;1.45;;
23472;SDS011;11909;52.516;13.564;2023-12-29T09:11:26;4.90;;;1.38;;
23472;SDS011;11909;52.516;13.564;2023-12-29T09:13:53;5.20;;;1.40;;
23472;SDS011;11909;52.516;13.564;2023-12-29T09:16:21;2.60;;;1.20;;
23472;SDS011;11909;52.516;13.564;2023-12-29T09:18:51;4.20;;;1.40;;
23472;SDS011;11909;52.516;13.564;2023-12-29T09:21:19;9.23;;;1.80;;
23472;SDS011;11909;52.516;13.564;2023-12-29T09:23:46;2.67;;;1.27;;
23472;SDS011;11909;52.516;13.564;2023-12-29T09:26:15;4.05;;;1.50;;
23472;SDS011;11909;52.516;13.564;2023-12-29T09:28:43;7.00;;;1.75;;
23472;SDS011;11909;52.516;13.564;2023-12-29T09:31:11;2.13;;;1.30;;
23472;SDS011;11909;52.516;13.564;2023-12-29T09:33:39;6.78;;;1.77;;
23472;SDS011;11909;52.516;13.564;2023-12-29T09:36:09;6.85;;;1.63;;
23472;SDS011;11909;52.516;13.564;2023-12-29T09:38:37;2.15;;;1.25;;
23472;SDS011;11909;52.516;13.564;2023-12-29T09:41:06;3.28;;;1.45;;
23472;SDS011;11909;52.516;13.564;2023-12-29T09:43:38;1.98;;;1.20;;
23472;SDS011;11909;52.516;13.564;2023-12-29T09:46:08;2.30;;;1.40;;
23472;SDS011;11909;52.516;13.564;2023-12-29T09:48:40;4.82;;;1.50;;
23472;SDS011;11909;52.516;13.564;2023-12-29T09:51:11;2.17;;;1.40;;
23472;SDS011;11909;52.516;13.564;2023-12-29T09:53:40;4.05;;;1.60;;
23472;SDS011;11909;52.516;13.564;2023-12-29T09:56:08;2.38;;;1.50;;
23472;SDS011;11909;52.516;13.564;2023-12-29T09:58:37;5.57;;;1.70;;
23472;SDS011;11909;52.516;13.564;2023-12-29T10:01:05;3.20;;;1.40;;
23472;SDS011;11909;52.516;13.564;2023-12-29T10:03:34;5.30;;;1.65;;
23472;SDS011;11909;52.516;13.564;2023-12-29T10:06:03;3.83;;;1.48;;
23472;SDS011;11909;52.516;13.564;2023-12-29T10:08:37;3.13;;;1.67;;
23472;SDS011;11909;52.516;13.564;2023-12-29T10:11:10;4.32;;;1.77;;
23472;SDS011;11909;52.516;13.564;2023-12-29T10:13:39;5.28;;;1.35;;
23472;SDS011;11909;52.516;13.564;2023-12-29T10:16:13;4.03;;;1.40;;
23472;SDS011;11909;52.516;13.564;2023-12-29T10:18:49;5.13;;;1.95;;
23472;SDS011;11909;52.516;13.564;2023-12-29T10:21:28;5.28;;;2.20;;
23472;SDS011;11909;52.516;13.564;2023-12-29T10:24:05;4.00;;;1.10;;
23472;SDS011;11909;52.516;13.564;2023-12-29T10:26:38;2.72;;;1.38;;
23472;SDS011;11909;52.516;13.564;2023-12-29T10:29:07;3.07;;;1.20;;
23472;SDS011;11909;52.516;13.564;2023-12-29T10:31:35;3.90;;;1.50;;
23472;SDS011;11909;52.516;13.564;2023-12-29T10:34:19;2.45;;;1.38;;
23472;SDS011;11909;52.516;13.564;2023-12-29T10:36:55;4.38;;;1.30;;
23472;SDS011;11909;52.516;13.564;2023-12-29T10:39:25;3.53;;;1.50;;
23472;SDS011;11909;52.516;13.564;2023-12-29T10:42:02;5.20;;;1.27;;
23472;SDS011;11909;52.516;13.564;2023-12-29T10:44:32;6.00;;;1.45;;
23472;SDS011;11909;52.516;13.564;2023-12-29T10:47:07;8.30;;;1.50;;
23472;SDS011;11909;52.516;13.564;2023-12-29T10:49:35;5.78;;;1.63;;
23472;SDS011;11909;52.516;13.564;2023-12-29T10:52:10;4.47;;;1.42;;
23472;SDS011;11909;52.516;13.564;2023-12-29T10:54:41;5.15;;;1.60;;
23472;SDS011;11909;52.516;13.564;2023-12-29T10:57:10;5.30;;;1.50;;
23472;SDS011;11909;52.516;13.564;2023-12-29T10:59:39;3.70;;;1.60;;
23472;SDS011;11909;52.516;13.564;2023-12-29T11:02:07;6.32;;;1.40;;
23472;SDS011;11909;52.516;13.564;2023-12-29T11:04:41;6.00;;;1.27;;
23472;SDS011;11909;52.516;13.564;2023-12-29T11:07:11;3.85;;;1.33;;
23472;SDS011;11909;52.516;13.564;2023-12-29T11:09:40;3.87;;;1.23;;
23472;SDS011;11909;52.516;13.564;2023-12-29T11:12:09;2.75;;;1.20;;
23472;SDS011;11909;52.516;13.564;2023-12-29T11:14:40;6.38;;;1.77;;
23472;SDS011;11909;52.516;13.564;2023-12-29T11:17:12;3.33;;;1.52;;
23472;SDS011;11909;52.516;13.564;2023-12-29T11:24:43;5.60;;;1.40;;
23472;SDS011;11909;52.516;13.564;2023-12-29T11:27:14;7.18;;;1.30;;
23472;SDS011;11909;52.516;13.564;2023-12-29T11:29:43;5.03;;;1.65;;
23472;SDS011;11909;52.516;13.564;2023-12-29T11:32:14;3.53;;;1.75;;
23472;SDS011;11909;52.516;13.564;2023-12-29T11:34:46;3.90;;;1.38;;
23472;SDS011;11909;52.516;13.564;2023-12-29T11:37:21;3.33;;;1.65;;
23472;SDS011;11909;52.516;13.564;2023-12-29T11:40:03;2.75;;;1.30;;
23472;SDS011;11909;52.516;13.564;2023-12-29T11:42:40;5.70;;;1.38;;
23472;SDS011;11909;52.516;13.564;2023-12-29T11:48:00;3.20;;;1.40;;
23472;SDS011;11909;52.516;13.564;2023-12-29T11:50:30;5.90;;;1.40;;
23472;SDS011;11909;52.516;13.564;2023-12-29T11:52:59;3.15;;;1.13;;
23472;SDS011;11909;52.516;13.564;2023-12-29T11:55:30;3.83;;;1.13;;
23472;SDS011;11909;52.516;13.564;2023-12-29T11:58:03;6.68;;;1.42;;
23472;SDS011;11909;52.516;13.564;2023-12-29T12:00:40;3.97;;;1.23;;
23472;SDS011;11909;52.516;13.564;2023-12-29T12:03:19;3.97;;;1.30;;
23472;SDS011;11909;52.516;13.564;2023-12-29T12:05:52;4.50;;;1.30;;
23472;SDS011;11909;52.516;13.564;2023-12-29T12:08:27;6.20;;;1.67;;
23472;SDS011;11909;52.516;13.564;2023-12-29T12:10:59;6.07;;;1.55;;
23472;SDS011;11909;52.516;13.564;2023-12-29T12:14:04;5.57;;;1.40;;
23472;SDS011;11909;52.516;13.564;2023-12-29T12:16:47;3.60;;;1.40;;
23472;SDS011;11909;52.516;13.564;2023-12-29T12:19:17;4.22;;;1.38;;
23472;SDS011;11909;52.516;13.564;2023-12-29T12:21:47;4.43;;;1.67;;
23472;SDS011;11909;52.516;13.564;2023-12-29T12:24:18;3.28;;;1.42;;
23472;SDS011;11909;52.516;13.564;2023-12-29T12:26:48;5.07;;;1.60;;
23472;SDS011;11909;52.516;13.564;2023-12-29T12:29:17;4.67;;;1.87;;
23472;SDS011;11909;52.516;13.564;2023-12-29T12:31:52;3.03;;;1.50;;
23472;SDS011;11909;52.516;13.564;2023-12-29T12:34:22;3.10;;;1.20;;
23472;SDS011;11909;52.516;13.564;2023-12-29T12:36:51;4.22;;;1.42;;
23472;SDS011;11909;52.516;13.564;2023-12-29T12:39:19;3.90;;;1.52;;
23472;SDS011;11909;52.516;13.564;2023-12-29T12:41:49;2.85;;;1.35;;
23472;SDS011;11909;52.516;13.564;2023-12-29T12:44:17;5.65;;;1.27;;
23472;SDS011;11909;52.516;13.564;2023-12-29T12:46:49;3.33;;;1.27;;
23472;SDS011;11909;52.516;13.564;2023-12-29T12:49:19;7.28;;;1.23;;
23472;SDS011;11909;52.516;13.564;2023-12-29T12:51:48;2.85;;;1.40;;
23472;SDS011;11909;52.516;13.564;2023-12-29T12:54:17;2.65;;;1.20;;
23472;SDS011;11909;52.516;13.564;2023-12-29T12:56:46;2.90;;;1.10;;
23472;SDS011;11909;52.516;13.564;2023-12-29T12:59:17;5.38;;;1.27;;
23472;SDS011;11909;52.516;13.564;2023-12-29T13:01:45;1.50;;;1.17;;
23472;SDS011;11909;52.516;13.564;2023-12-29T13:04:15;3.20;;;1.52;;
23472;SDS011;11909;52.516;13.564;2023-12-29T13:06:44;7.85;;;1.58;;
23472;SDS011;11909;52.516;13.564;2023-12-29T13:09:16;2.80;;;1.30;;
23472;SDS011;11909;52.516;13.564;2023-12-29T13:11:46;4.43;;;1.45;;
23472;SDS011;11909;52.516;13.564;2023-12-29T13:14:21;4.43;;;1.40;;
23472;SDS011;11909;52.516;13.564;2023-12-29T13:16:52;4.63;;;1.70;;
23472;SDS011;11909;52.516;13.564;2023-12-29T13:19:20;2.00;;;1.30;;
23472;SDS011;11909;52.516;13.564;2023-12-29T13:21:51;4.22;;;1.42;;
23472;SDS011;11909;52.516;13.564;2023-12-29T13:24:22;3.15;;;1.75;;
23472;SDS011;11909;52.516;13.564;2023-12-29T13:26:52;3.63;;;1.50;;
23472;SDS011;11909;52.516;13.564;2023-12-29T13:29:26;2.58;;;1.45;;
23472;SDS011;11909;52.516;13.564;2023-12-29T13:34:28;4.22;;;1.45;;
23472;SDS011;11909;52.516;13.564;2023-12-29T13:37:01;4.18;;;1.38;;
23472;SDS011;11909;52.516;13.564;2023-12-29T13:39:35;3.15;;;1.42;;
23472;SDS011;11909;52.516;13.564;2023-12-29T13:42:06;4.13;;;1.42;;
23472;SDS011;11909;52.516;13.564;2023-12-29T13:44:38;3.83;;;1.52;;
23472;SDS011;11909;52.516;13.564;2023-12-29T13:47:09;1.42;;;1.33;;
23472;SDS011;11909;52.516;13.564;2023-12-29T13:49:39;3.17;;;1.30;;
23472;SDS011;11909;52.516;13.564;2023-12-29T13:52:07;3.55;;;1.10;;
23472;SDS011;11909;52.516;13.564;2023-12-29T13:54:41;2.58;;;1.40;;
23472;SDS011;11909;52.516;13.564;2023-12-29T13:57:10;2.30;;;1.50;;
23472;SDS011;11909;52.516;13.564;2023-12-29T13:59:39;4.32;;;1.40;;
23472;SDS011;11909;52.516;13.564;2023-12-29T14:05:12;1.40;;;1.13;;
23472;SDS011;11909;52.516;13.564;2023-12-29T14:07:44;2.83;;;1.45;;
23472;SDS011;11909;52.516;13.564;2023-12-29T14:10:15;2.80;;;1.10;;
23472;SDS011;11909;52.516;13.564;2023-12-29T14:12:43;2.20;;;1.25;;
23472;SDS011;11909;52.516;13.564;2023-12-29T14:15:13;2.75;;;1.10;;
23472;SDS011;11909;52.516;13.564;2023-12-29T14:17:42;2.35;;;1.10;;
23472;SDS011;11909;52.516;13.564;2023-12-29T14:20:10;1.95;;;1.25;;
23472;SDS011;11909;52.516;13.564;2023-12-29T14:22:38;2.42;;;1.42;;
23472;SDS011;11909;52.516;13.564;2023-12-29T14:25:06;1.90;;;1.30;;
23472;SDS011;11909;52.516;13.564;2023-12-29T14:27:35;3.97;;;1.40;;
23472;SDS011;11909;52.516;13.564;2023-12-29T14:30:18;2.42;;;1.23;;
23472;SDS011;11909;52.516;13.564;2023-12-29T14:32:47;2.00;;;1.20;;
23472;SDS011;11909;52.516;13.564;2023-12-29T14:35:17;1.38;;;1.17;;
23472;SDS011;11909;52.516;13.564;2023-12-29T14:37:44;2.22;;;0.82;;
23472;SDS011;11909;52.516;13.564;2023-12-29T14:40:13;4.15;;;1.50;;
23472;SDS011;11909;52.516;13.564;2023-12-29T14:42:41;1.90;;;1.35;;
23472;SDS011;11909;52.516;13.564;2023-12-29T14:45:10;1.40;;;1.30;;
23472;SDS011;11909;52.516;13.564;2023-12-29T14:47:39;3.38;;;1.30;;
23472;SDS011;11909;52.516;13.564;2023-12-29T14:50:08;2.60;;;1.20;;
23472;SDS011;11909;52.516;13.564;2023-12-29T14:52:36;0.98;;;0.90;;
23472;SDS011;11909;52.516;13.564;2023-12-29T14:55:05;1.60;;;1.00;;
23472;SDS011;11909;52.516;13.564;2023-12-29T14:57:33;1.55;;;1.10;;
23472;SDS011;11909;52.516;13.564;2023-12-29T15:00:01;1.45;;;0.80;;
23472;SDS011;11909;52.516;13.564;2023-12-29T15:02:31;1.92;;;1.20;;
23472;SDS011;11909;52.516;13.564;2023-12-29T15:05:00;1.20;;;1.10;;
23472;SDS011;11909;52.516;13.564;2023-12-29T15:07:28;3.22;;;1.10;;